Time;durP1;ratioP1;P1;durP2;ratioP2;P2;SDS_P1;SDS_P2;PMS_P1;PMS_P2;Temp;Humidity;BMP_temperature;BMP_pressure;BME280_temperature;BME280_humidity;BME280_pressure;Samples;Min_cycle;Max_cycle;Signal;HPM_P1;HPM_P2
2023/12/11 00:00:32;;;;;;;0.50;0.50;;;;;;;;;;4953266;29;20032;-82
2023/12/11 00:02:59;;;;;;;0.77;0.52;;;;;;;;;;4953812;29;20447;-83
2023/12/11 00:05:25;;;;;;;1.05;0.68;;;;;;;;;;4961816;28;20101;-83
2023/12/11 00:07:51;;;;;;;0.88;0.70;;;;;;;;;;4953786;29;20035;-83
2023/12/11 00:10:17;;;;;;;6.82;0.60;;;;;;;;;;4953553;29;20162;-83
2023/12/11 00:12:43;;;;;;;0.52;0.50;;;;;;;;;;4952359;29;20686;-83
2023/12/11 00:15:10;;;;;;;0.45;0.40;;;10.70;99.90;;;;;;4953653;29;20022;-83
2023/12/11 00:17:36;;;;;;;1.95;0.73;;;10.60;99.90;;;;;;4953731;29;20043;-82
2023/12/11 00:20:02;;;;;;;2.30;0.90;;;;;;;;;;4953228;29;20616;-83
2023/12/11 00:22:28;;;;;;;2.63;1.05;;;;;;;;;;4953493;29;20114;-83
2023/12/11 00:24:55;;;;;;;0.95;0.70;;;;;;;;;;4953232;29;20031;-83
2023/12/11 00:27:21;;;;;;;0.65;0.60;;;;;;;;;;4948124;29;20107;-83
2023/12/11 00:29:47;;;;;;;1.20;1.10;;;;;;;;;;4952504;28;20138;-83
2023/12/11 00:32:13;;;;;;;0.82;0.73;;;;;;;;;;4953814;29;20405;-83
2023/12/11 00:34:39;;;;;;;4.57;1.60;;;;;;;;;;4952614;29;20032;-83
2023/12/11 00:37:04;;;;;;;3.25;1.40;;;;;;;;;;4953498;29;20054;-83
2023/12/11 00:39:30;;;;;;;1.75;1.30;;;;;;;;;;4953063;29;20038;-83
2023/12/11 00:41:57;;;;;;;2.55;1.13;;;;;;;;;;4952980;29;20039;-83
2023/12/11 00:44:23;;;;;;;3.33;1.58;;;;;;;;;;4953158;28;20042;-84
2023/12/11 00:46:49;;;;;;;1.67;0.93;;;;;;;;;;4953124;29;20031;-83
2023/12/11 00:49:15;;;;;;;1.95;1.08;;;;;;;;;;4940010;29;20211;-83
2023/12/11 00:51:41;;;;;;;2.60;1.15;;;;;;;;;;4952978;29;20038;-83
2023/12/11 00:54:07;;;;;;;5.55;1.40;;;;;;;;;;4952514;29;20031;-83
2023/12/11 00:56:33;;;;;;;2.60;1.35;;;;;;;;;;4952638;29;20023;-83
2023/12/11 00:58:59;;;;;;;3.28;1.42;;;;;;;;;;4952085;29;20019;-83
2023/12/11 01:01:25;;;;;;;2.70;1.20;;;;;;;;;;4953163;29;20328;-83
2023/12/11 01:03:51;;;;;;;5.13;1.35;;;;;;;;;;4949572;29;20122;-83
2023/12/11 01:06:17;;;;;;;0.80;0.80;;;;;;;;;;4954458;28;20020;-83
2023/12/11 01:08:43;;;;;;;0.88;0.75;;;;;;;;;;4949803;29;20046;-83
2023/12/11 01:11:09;;;;;;;1.23;1.00;;;;;;;;;;4952732;29;20102;-83
2023/12/11 01:13:35;;;;;;;2.50;1.48;;;;;;;;;;4950651;28;20193;-83
2023/12/11 01:16:01;;;;;;;5.85;2.15;;;;;;;;;;4946787;28;20130;-83
2023/12/11 01:18:27;;;;;;;3.50;2.30;;;;;;;;;;4951866;28;20035;-82
2023/12/11 01:20:53;;;;;;;3.08;1.77;;;;;;;;;;4952232;29;20023;-83
2023/12/11 01:23:19;;;;;;;3.67;1.25;;;;;;;;;;4952133;28;20039;-84
2023/12/11 01:25:45;;;;;;;3.53;1.30;;;10.20;99.90;;;;;;4950976;29;20531;-84
2023/12/11 01:28:11;;;;;;;3.83;1.95;;;;;;;;;;4951629;29;20031;-83
2023/12/11 01:30:37;;;;;;;2.72;1.80;;;;;;;;;;4951844;29;20047;-83
2023/12/11 01:33:03;;;;;;;2.65;1.77;;;;;;;;;;4951488;28;20078;-83
2023/12/11 01:35:29;;;;;;;1.58;1.30;;;10.30;99.90;;;;;;4952329;29;20032;-83
2023/12/11 01:37:55;;;;;;;0.75;0.73;;;;;;;;;;4952105;29;20035;-83
2023/12/11 01:40:21;;;;;;;1.27;0.60;;;;;;;;;;4952211;29;20023;-83
2023/12/11 01:42:47;;;;;;;0.40;0.40;;;;;;;;;;4950848;28;20031;-83
2023/12/11 01:45:13;;;;;;;4.43;1.50;;;;;;;;;;4951852;29;20028;-83
2023/12/11 01:47:39;;;;;;;4.47;1.80;;;10.60;99.90;;;;;;4934571;29;20034;-83
2023/12/11 01:50:08;;;;;;;2.85;1.70;;;10.50;99.90;;;;;;4951894;28;20027;-83
2023/12/11 01:52:34;;;;;;;4.05;1.33;;;;;;;;;;4951086;29;20485;-83
2023/12/11 01:55:00;;;;;;;2.38;1.23;;;;;;;;;;4951379;29;20090;-83
2023/12/11 01:57:26;;;;;;;3.90;1.40;;;;;;;;;;4948732;29;20504;-83
2023/12/11 01:59:52;;;;;;;3.40;1.70;;;;;;;;;;4952460;29;20023;-83
2023/12/11 02:02:20;;;;;;;2.33;1.33;;;10.90;99.90;;;;;;4951932;29;20074;-83
2023/12/11 02:04:46;;;;;;;2.45;1.52;;;;;;;;;;4954007;28;20560;-83
2023/12/11 02:07:12;;;;;;;1.30;1.20;;;;;;;;;;4948245;29;20101;-84
2023/12/11 02:09:38;;;;;;;3.75;1.70;;;;;;;;;;4950596;29;20485;-83
2023/12/11 02:12:05;;;;;;;5.32;2.63;;;10.50;99.90;;;;;;4951459;29;20157;-83
2023/12/11 02:14:31;;;;;;;3.75;2.17;;;;;;;;;;4934520;29;20019;-83
2023/12/11 02:16:58;;;;;;;2.43;1.43;;;10.50;99.90;;;;;;4951839;29;20027;-83
2023/12/11 02:19:24;;;;;;;2.28;1.63;;;10.50;99.90;;;;;;4942727;29;20632;-83
2023/12/11 02:21:50;;;;;;;7.35;2.42;;;;;;;;;;4950356;29;20039;-83
2023/12/11 02:24:23;;;;;;;3.65;2.65;;;10.30;99.90;;;;;;4951336;28;20528;-83
2023/12/11 02:26:48;;;;;;;3.83;1.90;;;10.30;99.90;;;;;;4951322;29;20031;-83
2023/12/11 02:29:14;;;;;;;4.15;2.28;;;;;;;;;;4950703;29;20051;-83
2023/12/11 02:31:40;;;;;;;3.67;1.75;;;;;;;;;;4951503;29;20039;-82
2023/12/11 02:34:08;;;;;;;2.28;1.50;;;10.40;99.90;;;;;;4951387;29;20282;-82
2023/12/11 02:36:33;;;;;;;2.30;1.40;;;10.50;99.90;;;;;;4951175;29;20035;-83
2023/12/11 02:39:00;;;;;;;3.08;1.70;;;;;;;;;;4952342;29;20031;-83
2023/12/11 02:41:26;;;;;;;1.48;1.13;;;;;;;;;;4951068;29;20042;-82
2023/12/11 02:43:51;;;;;;;2.67;1.95;;;10.70;99.90;;;;;;4950788;29;20110;-83
2023/12/11 02:46:17;;;;;;;4.10;2.88;;;;;;;;;;4951466;29;20068;-82
2023/12/11 02:48:43;;;;;;;3.45;2.00;;;;;;;;;;4950080;29;20039;-82
2023/12/11 02:51:09;;;;;;;3.67;1.83;;;;;;;;;;4951612;29;20038;-83
2023/12/11 02:53:35;;;;;;;3.80;1.90;;;;;;;;;;4952561;28;20035;-83
2023/12/11 02:56:01;;;;;;;3.78;1.98;;;;;;;;;;4954712;29;20071;-82
2023/12/11 02:58:27;;;;;;;4.20;2.15;;;;;;;;;;4954518;29;20440;-82
2023/12/11 03:00:53;;;;;;;5.78;3.10;;;;;;;;;;4955183;29;20028;-82
2023/12/11 03:03:19;;;;;;;4.75;2.38;;;;;;;;;;4954500;29;20039;-82
2023/12/11 03:05:45;;;;;;;6.28;2.55;;;;;;;;;;4957186;28;20035;-83
2023/12/11 03:08:11;;;;;;;4.93;1.65;;;;;;;;;;4955001;29;20023;-83
2023/12/11 03:10:37;;;;;;;3.85;1.00;;;;;;;;;;4954891;29;20023;-82
2023/12/11 03:13:03;;;;;;;1.10;0.90;;;;;;;;;;4955061;29;20489;-82
2023/12/11 03:15:30;;;;;;;1.30;1.20;;;10.90;99.90;;;;;;4954833;29;20027;-82
2023/12/11 03:17:56;;;;;;;3.17;1.10;;;;;;;;;;4952634;29;20016;-82
2023/12/11 03:20:22;;;;;;;9.15;2.08;;;;;;;;;;4946794;29;20063;-82
2023/12/11 03:22:48;;;;;;;8.13;2.22;;;;;;;;;;4952808;28;20090;-82
2023/12/11 03:25:14;;;;;;;1.63;0.70;;;;;;;;;;4945695;29;20122;-83
2023/12/11 03:27:40;;;;;;;0.55;0.52;;;;;;;;;;4953522;29;20480;-83
2023/12/11 03:30:07;;;;;;;1.33;1.23;;;11.20;99.90;;;;;;4945735;29;20047;-83
2023/12/11 03:32:33;;;;;;;0.47;0.47;;;;;;;;;;4953972;29;20085;-83
2023/12/11 03:34:59;;;;;;;0.70;0.50;;;;;;;;;;4954331;29;20059;-83
2023/12/11 03:37:25;;;;;;;2.50;0.60;;;;;;;;;;4953862;29;20065;-83
2023/12/11 03:39:51;;;;;;;0.50;0.50;;;;;;;;;;4954154;29;20563;-83
2023/12/11 03:42:17;;;;;;;1.35;0.60;;;;;;;;;;4952892;29;20110;-83
2023/12/11 03:44:43;;;;;;;3.05;1.30;;;;;;;;;;4953831;29;20060;-82
2023/12/11 03:47:09;;;;;;;0.88;0.50;;;;;;;;;;4953973;29;20035;-83
2023/12/11 03:49:35;;;;;;;1.10;0.70;;;;;;;;;;4954176;29;20035;-83
2023/12/11 03:52:01;;;;;;;0.60;0.50;;;;;;;;;;4949290;29;20079;-82
2023/12/11 03:54:27;;;;;;;2.15;0.70;;;;;;;;;;4953590;29;20030;-83
2023/12/11 03:56:53;;;;;;;1.50;0.80;;;;;;;;;;4953910;29;20074;-83
2023/12/11 03:59:19;;;;;;;1.30;0.75;;;;;;;;;;4953535;29;20404;-83
2023/12/11 04:01:45;;;;;;;1.88;0.70;;;;;;;;;;4953154;29;20058;-83
2023/12/11 04:04:11;;;;;;;0.68;0.40;;;;;;;;;;4954987;28;20039;-83
2023/12/11 04:06:37;;;;;;;1.40;0.50;;;;;;;;;;4954314;28;20027;-82
2023/12/11 04:09:04;;;;;;;1.38;0.50;;;;;;;;;;4954171;29;20020;-83
2023/12/11 04:11:30;;;;;;;;;;;11.70;99.90;;;;;;4954543;29;20043;-83
2023/12/11 04:13:56;;;;;;;0.57;0.30;;;;;;;;;;4954108;29;19906;-82
2023/12/11 04:16:22;;;;;;;0.40;0.40;;;;;;;;;;4936257;29;20042;-83
2023/12/11 04:18:48;;;;;;;0.40;0.40;;;;;;;;;;4953395;29;20091;-83
2023/12/11 04:21:13;;;;;;;0.73;0.57;;;11.50;99.90;;;;;;4952919;29;20058;-82
2023/12/11 04:23:39;;;;;;;0.22;0.22;;;11.50;99.90;;;;;;4952838;28;20470;-83
2023/12/11 04:26:05;;;;;;;4.82;0.50;;;;;;;;;;4953030;29;20631;-83
2023/12/11 04:28:31;;;;;;;0.30;0.30;;;11.50;99.90;;;;;;4953725;29;20034;-83
2023/12/11 04:30:57;;;;;;;0.30;0.30;;;;;;;;;;4953112;29;20509;-83
2023/12/11 04:33:22;;;;;;;0.20;0.20;;;11.50;99.90;;;;;;4953347;29;20047;-83
2023/12/11 04:35:48;;;;;;;0.30;0.30;;;;;;;;;;4952355;29;20070;-82
2023/12/11 04:38:14;;;;;;;1.33;0.88;;;;;;;;;;4953843;29;20110;-82
2023/12/11 04:40:40;;;;;;;3.78;1.67;;;;;;;;;;4951520;29;20070;-83
2023/12/11 04:43:06;;;;;;;1.08;0.80;;;;;;;;;;4952920;29;20075;-83
2023/12/11 04:45:32;;;;;;;0.52;0.43;;;;;;;;;;4951717;29;20460;-83
2023/12/11 04:47:58;;;;;;;0.60;0.50;;;;;;;;;;4953067;29;20033;-82
2023/12/11 04:50:25;;;;;;;0.60;0.60;;;;;;;;;;4952653;29;20020;-83
2023/12/11 04:52:51;;;;;;;0.40;0.40;;;;;;;;;;4953125;29;20032;-82
2023/12/11 04:55:16;;;;;;;0.30;0.30;;;11.70;99.90;;;;;;4943841;29;20085;-83
2023/12/11 04:57:42;;;;;;;0.52;0.47;;;;;;;;;;4952348;29;20027;-83
2023/12/11 05:00:09;;;;;;;0.50;0.50;;;11.70;99.90;;;;;;4948374;29;20038;-83
2023/12/11 05:02:35;;;;;;;0.32;0.32;;;;;;;;;;4944826;29;20588;-83
2023/12/11 05:05:00;;;;;;;0.28;0.28;;;;;;;;;;4953797;28;20051;-83
2023/12/11 05:07:26;;;;;;;0.22;0.22;;;;;;;;;;4952762;29;20031;-83
2023/12/11 05:09:52;;;;;;;0.32;0.30;;;;;;;;;;4952575;29;20027;-83
2023/12/11 05:12:18;;;;;;;0.20;0.20;;;;;;;;;;4952181;29;20449;-83
2023/12/11 05:14:44;;;;;;;0.30;0.30;;;11.80;99.90;;;;;;4952495;29;20023;-83
2023/12/11 05:17:10;;;;;;;0.30;0.30;;;;;;;;;;4951811;28;20405;-83
2023/12/11 05:19:36;;;;;;;3.05;1.30;;;;;;;;;;4945108;29;20150;-83
2023/12/11 05:22:02;;;;;;;1.23;0.88;;;11.60;99.90;;;;;;4952106;29;20043;-83
2023/12/11 05:24:28;;;;;;;0.85;0.55;;;;;;;;;;4934323;29;20400;-83
2023/12/11 05:26:55;;;;;;;0.85;0.85;;;;;;;;;;4952693;29;20027;-84
2023/12/11 05:29:21;;;;;;;0.38;0.38;;;;;;;;;;4950245;29;20051;-83
2023/12/11 05:31:47;;;;;;;0.60;0.60;;;;;;;;;;4943240;29;20031;-83
2023/12/11 05:34:13;;;;;;;0.45;0.30;;;;;;;;;;4952691;29;20030;-83
2023/12/11 05:36:39;;;;;;;0.20;0.20;;;;;;;;;;4952199;29;20150;-83
2023/12/11 05:39:06;;;;;;;0.40;0.40;;;;;;;;;;4951869;29;20502;-83
2023/12/11 05:41:32;;;;;;;1.58;0.60;;;;;;;;;;4952009;29;20051;-83
2023/12/11 05:43:59;;;;;;;1.40;0.95;;;;;;;;;;4951599;29;20506;-83
2023/12/11 05:46:25;;;;;;;1.55;0.82;;;;;;;;;;4951650;29;20035;-83
2023/12/11 05:48:51;;;;;;;0.82;0.55;;;;;;;;;;4944607;29;20023;-83
2023/12/11 05:51:17;;;;;;;0.50;0.43;;;11.30;99.90;;;;;;4951452;29;20027;-83
2023/12/11 05:53:42;;;;;;;0.47;0.40;;;;;;;;;;4941176;29;20026;-83
2023/12/11 05:56:09;;;;;;;0.30;0.30;;;;;;;;;;4951107;29;20117;-83
2023/12/11 05:58:35;;;;;;;0.30;0.30;;;11.80;99.90;;;;;;4950212;29;20500;-83
2023/12/11 06:01:01;;;;;;;0.30;0.30;;;;;;;;;;4951740;29;20042;-83
2023/12/11 06:03:28;;;;;;;0.45;0.40;;;;;;;;;;4950950;29;20034;-83
2023/12/11 06:05:58;;;;;;;0.65;0.65;;;12.10;99.90;;;;;;4951116;28;20019;-82
2023/12/11 06:08:24;;;;;;;0.50;0.40;;;11.90;99.90;;;;;;4939851;29;20110;-83
2023/12/11 06:10:50;;;;;;;0.38;0.38;;;;;;;;;;4940320;29;20497;-83
2023/12/11 06:13:16;;;;;;;2.85;1.30;;;;;;;;;;4951728;29;20432;-83
2023/12/11 06:15:43;;;;;;;2.50;0.55;;;11.90;99.90;;;;;;4951716;29;20035;-83
2023/12/11 06:18:09;;;;;;;6.93;0.77;;;;;;;;;;4951277;29;20027;-83
2023/12/11 06:20:35;;;;;;;1.20;0.40;;;;;;;;;;4934138;29;20130;-83
2023/12/11 06:23:01;;;;;;;3.95;0.68;;;;;;;;;;4951734;28;20043;-84
2023/12/11 06:25:27;;;;;;;0.47;0.47;;;12.20;99.90;;;;;;4951939;29;20023;-83
2023/12/11 06:27:53;;;;;;;1.25;0.73;;;12.20;99.90;;;;;;4952193;28;20023;-84
2023/12/11 06:30:19;;;;;;;4.85;1.40;;;;;;;;;;4956370;29;20061;-87
2023/12/11 06:32:45;;;;;;;10.40;4.20;;;;;;;;;;4951404;29;20031;-87
2023/12/11 06:35:11;;;;;;;15.30;6.20;;;;;;;;;;4953472;29;20481;-87
2023/12/11 06:37:37;;;;;;;2.72;1.85;;;;;;;;;;4954419;29;20392;-87
2023/12/11 06:40:03;;;;;;;0.60;0.60;;;12.50;99.90;;;;;;4954290;29;20023;-87
2023/12/11 06:42:32;;;;;;;2.13;1.40;;;;;;;;;;4952963;29;20126;-88
2023/12/11 06:44:59;;;;;;;0.75;0.50;;;12.40;99.90;;;;;;4951391;29;20107;-88
2023/12/11 06:47:25;;;;;;;1.20;0.82;;;;;;;;;;4930731;29;20082;-86
2023/12/11 06:49:52;;;;;;;1.25;0.90;;;;;;;;;;4953048;29;20062;-88
2023/12/11 06:52:18;;;;;;;2.13;1.05;;;;;;;;;;4952691;29;20108;-88
2023/12/11 06:54:44;;;;;;;2.38;1.00;;;;;;;;;;4956140;29;20152;-89
2023/12/11 06:57:11;;;;;;;1.73;0.57;;;;;;;;;;4945756;29;20031;-88
2023/12/11 06:59:37;;;;;;;3.40;1.03;;;;;;;;;;4952258;29;20019;-82
2023/12/11 07:02:04;;;;;;;1.95;1.35;;;;;;;;;;4952746;29;20286;-83
2023/12/11 07:04:30;;;;;;;2.30;1.15;;;;;;;;;;4957318;28;20093;-83
2023/12/11 07:06:56;;;;;;;5.75;3.05;;;;;;;;;;4950675;29;20043;-75
2023/12/11 07:09:21;;;;;;;9.70;3.17;;;12.30;99.90;;;;;;4949706;29;20067;-75
2023/12/11 07:11:47;;;;;;;9.40;3.70;;;;;;;;;;4951993;29;20030;-75
2023/12/11 07:14:13;;;;;;;2.50;1.55;;;;;;;;;;4951739;29;20034;-76
2023/12/11 07:16:39;;;;;;;4.97;1.73;;;;;;;;;;4950825;29;20020;-76
2023/12/11 07:19:05;;;;;;;10.10;0.90;;;12.30;99.90;;;;;;4950647;29;20035;-76
2023/12/11 07:21:31;;;;;;;7.05;2.15;;;12.50;99.90;;;;;;4951773;29;20519;-75
2023/12/11 07:23:57;;;;;;;2.35;1.40;;;;;;;;;;4952149;28;20072;-76
2023/12/11 07:26:23;;;;;;;2.00;1.55;;;;;;;;;;4937321;29;20027;-77
2023/12/11 07:28:49;;;;;;;0.80;0.80;;;;;;;;;;4950673;29;20459;-77
2023/12/11 07:31:15;;;;;;;0.50;0.43;;;;;;;;;;4951456;29;20087;-77
2023/12/11 07:33:41;;;;;;;1.85;0.95;;;;;;;;;;4951530;29;20039;-78
2023/12/11 07:36:07;;;;;;;0.43;0.38;;;;;;;;;;4952972;29;20055;-77
2023/12/11 07:38:33;;;;;;;1.00;0.50;;;;;;;;;;4952170;29;20388;-77
2023/12/11 07:40:59;;;;;;;0.40;0.40;;;;;;;;;;4949857;29;20473;-78
2023/12/11 07:43:25;;;;;;;0.47;0.40;;;;;;;;;;4952242;29;20039;-81
2023/12/11 07:45:51;;;;;;;1.08;0.52;;;;;;;;;;4952309;29;20030;-77
2023/12/11 07:48:17;;;;;;;3.05;0.40;;;;;;;;;;4949374;29;20039;-77
2023/12/11 07:50:43;;;;;;;0.95;0.63;;;13.30;99.90;;;;;;4951853;29;20027;-77
2023/12/11 07:53:09;;;;;;;8.02;1.23;;;;;;;;;;4943446;29;20032;-78
2023/12/11 07:55:38;;;;;;;0.85;0.35;;;12.60;99.90;;;;;;4948770;29;20102;-78
2023/12/11 07:58:03;;;;;;;2.80;1.98;;;13.70;99.90;;;;;;4950300;29;20477;-76
2023/12/11 08:00:30;;;;;;;4.28;1.25;;;;;;;;;;4952088;29;20062;-77
2023/12/11 08:02:56;;;;;;;4.93;2.53;;;14.20;99.90;;;;;;4946363;29;20031;-77
2023/12/11 08:05:22;;;;;;;0.85;0.73;;;;;;;;;;4952641;28;20031;-78
2023/12/11 08:07:48;;;;;;;0.95;0.90;;;;;;;;;;4951330;29;20027;-78
2023/12/11 08:10:16;;;;;;;0.38;0.38;;;;;;;;;;4950826;29;20199;-78
2023/12/11 08:12:42;;;;;;;0.50;0.50;;;;;;;;;;4950895;29;20223;-78
2023/12/11 08:15:08;;;;;;;0.47;0.47;;;14.10;99.90;;;;;;4951532;29;20473;-78
2023/12/11 08:17:34;;;;;;;0.20;0.20;;;;;;;;;;4950918;29;20031;-78
2023/12/11 08:20:00;;;;;;;2.47;1.40;;;;;;;;;;4943990;29;20035;-78
2023/12/11 08:22:26;;;;;;;6.93;3.20;;;;;;;;;;4950859;29;20153;-78
2023/12/11 08:24:52;;;;;;;1.40;0.88;;;;;;;;;;4939996;29;20501;-78
2023/12/11 08:27:18;;;;;;;1.42;0.80;;;;;;;;;;4950959;29;20031;-78
2023/12/11 08:29:46;;;;;;;0.98;0.88;;;;;;;;;;4951016;29;20067;-78
2023/12/11 08:32:12;;;;;;;0.88;0.73;;;;;;;;;;4951217;29;20039;-78
2023/12/11 08:34:37;;;;;;;0.68;0.68;;;14.30;99.90;;;;;;4950885;29;20035;-78
2023/12/11 08:37:03;;;;;;;0.43;0.40;;;;;;;;;;4951127;29;20023;-78
2023/12/11 08:39:29;;;;;;;1.58;0.95;;;;;;;;;;4951214;29;20393;-78
2023/12/11 08:41:55;;;;;;;1.17;0.90;;;;;;;;;;4950458;29;20027;-78
2023/12/11 08:44:21;;;;;;;1.02;0.82;;;;;;;;;;4950783;29;20500;-78
2023/12/11 08:46:47;;;;;;;0.50;0.50;;;;;;;;;;4951464;29;20031;-78
2023/12/11 08:49:13;;;;;;;0.90;0.65;;;;;;;;;;4947166;29;20126;-78
2023/12/11 08:51:41;;;;;;;1.10;0.55;;;;;;;;;;4949917;28;20118;-78
2023/12/11 08:54:07;;;;;;;0.30;0.30;;;;;;;;;;4940937;29;20034;-78
2023/12/11 08:56:33;;;;;;;0.65;0.30;;;;;;;;;;4948992;29;20401;-78
2023/12/11 08:59:00;;;;;;;0.43;0.43;;;;;;;;;;4940360;29;20495;-79
2023/12/11 09:01:26;;;;;;;0.28;0.28;;;14.90;99.90;;;;;;4950833;29;20063;-78
2023/12/11 09:03:51;;;;;;;0.68;0.45;;;14.80;99.90;;;;;;4950464;29;20196;-78
2023/12/11 09:06:17;;;;;;;4.15;0.45;;;;;;;;;;4953457;28;20054;-78
2023/12/11 09:08:43;;;;;;;0.32;0.32;;;;;;;;;;4950236;29;20024;-78
2023/12/11 09:11:09;;;;;;;0.60;0.60;;;;;;;;;;4940781;29;20099;-78
2023/12/11 09:13:36;;;;;;;0.57;0.50;;;14.70;99.90;;;;;;4950238;29;20047;-78
2023/12/11 09:16:03;;;;;;;0.30;0.30;;;;;;;;;;4950102;29;20512;-78
2023/12/11 09:18:29;;;;;;;0.75;0.43;;;;;;;;;;4950318;29;20027;-78
2023/12/11 09:20:55;;;;;;;0.20;0.20;;;;;;;;;;4946429;29;20565;-78
2023/12/11 09:23:21;;;;;;;0.70;0.40;;;;;;;;;;4949400;28;20110;-78
2023/12/11 09:25:47;;;;;;;0.50;0.50;;;;;;;;;;4950036;29;20027;-79
2023/12/11 09:28:14;;;;;;;0.57;0.57;;;;;;;;;;4950372;29;20038;-78
2023/12/11 09:30:40;;;;;;;0.95;0.30;;;;;;;;;;4949423;29;20057;-78
2023/12/11 09:33:06;;;;;;;1.08;0.63;;;;;;;;;;4949918;29;20504;-78
2023/12/11 09:35:32;;;;;;;1.02;0.20;;;;;;;;;;4950602;29;20030;-78
2023/12/11 09:37:58;;;;;;;0.30;0.30;;;;;;;;;;4950142;29;20502;-78
2023/12/11 09:40:24;;;;;;;0.38;0.38;;;;;;;;;;4949960;29;20031;-78
2023/12/11 09:42:51;;;;;;;0.55;0.40;;;15.80;98.30;;;;;;4949793;29;20027;-78
2023/12/11 09:45:19;;;;;;;0.30;0.30;;;15.80;96.90;;;;;;4947526;29;20476;-78
2023/12/11 09:47:52;;;;;;;0.40;0.30;;;15.90;96.80;;;;;;4950479;29;20027;-78
2023/12/11 09:50:18;;;;;;;0.75;0.60;;;;;;;;;;4950865;29;20027;-78
2023/12/11 09:52:44;;;;;;;1.73;0.88;;;;;;;;;;4949288;29;20523;-78
2023/12/11 09:55:10;;;;;;;1.13;0.90;;;18.20;96.40;;;;;;4945337;29;20020;-78
2023/12/11 09:57:40;;;;;;;7.38;2.50;;;16.40;95.60;;;;;;4949687;29;20027;-79
2023/12/11 10:00:08;;;;;;;2.08;1.63;;;16.60;95.60;;;;;;4949713;29;20023;-78
2023/12/11 10:02:34;;;;;;;;;;;16.60;95.80;;;;;;4949205;28;20575;-78
2023/12/11 10:05:08;;;;;;;1.88;1.13;;;15.10;94.30;;;;;;4951914;28;19925;-78
2023/12/11 10:07:35;;;;;;;8.18;2.90;;;14.70;94.10;;;;;;4949674;29;20511;-78
2023/12/11 10:10:16;;;;;;;7.22;2.13;;;16.80;99.90;;;;;;4949608;29;20027;-78
2023/12/11 10:12:42;;;;;;;8.02;3.92;;;16.70;97.60;;;;;;4947978;29;20032;-78
2023/12/11 10:15:08;;;;;;;5.53;2.42;;;16.80;95.40;;;;;;4949462;29;20034;-78
2023/12/11 10:17:34;;;;;;;6.43;2.97;;;;;;;;;;4949427;29;20118;-79
2023/12/11 10:20:00;;;;;;;1.67;1.48;;;;;;;;;;4949740;29;20035;-78
2023/12/11 10:22:28;;;;;;;3.55;2.08;;;16.50;93.60;;;;;;4948686;29;20412;-78
2023/12/11 10:24:54;;;;;;;0.60;0.60;;;16.60;93.30;;;;;;4938394;29;20098;-78
2023/12/11 10:27:26;;;;;;;2.35;1.10;;;16.90;93.50;;;;;;4949122;29;20027;-78
2023/12/11 10:30:12;;;;;;;0.88;0.45;;;17.20;97.90;;;;;;4949648;29;20121;-78
2023/12/11 10:32:39;;;;;;;1.60;0.80;;;17.10;95.40;;;;;;4949200;29;20031;-79
2023/12/11 10:35:06;;;;;;;2.65;1.38;;;17.30;90.80;;;;;;4949640;29;20038;-78
2023/12/11 10:37:34;;;;;;;0.85;0.80;;;16.80;98.80;;;;;;4949066;29;20035;-78
2023/12/11 10:40:00;;;;;;;0.70;0.52;;;;;;;;;;4949778;29;20098;-78
2023/12/11 10:42:27;;;;;;;1.20;0.70;;;17.20;92.50;;;;;;4949199;29;20039;-79
2023/12/11 10:44:53;;;;;;;1.00;0.40;;;16.40;92.40;;;;;;4949624;29;20086;-78
2023/12/11 10:47:20;;;;;;;0.30;0.30;;;16.20;93.00;;;;;;4943234;29;20050;-78
2023/12/11 10:49:45;;;;;;;0.40;0.40;;;16.70;95.80;;;;;;4950096;29;20028;-78
2023/12/11 10:52:11;;;;;;;0.30;0.30;;;16.40;99.90;;;;;;4949207;29;20027;-78
2023/12/11 10:54:38;;;;;;;1.08;0.32;;;16.70;99.90;;;;;;4948849;29;20054;-78
2023/12/11 10:57:08;;;;;;;0.43;0.20;;;16.50;93.10;;;;;;4949283;29;20035;-79
2023/12/11 10:59:35;;;;;;;1.25;0.60;;;17.40;93.60;;;;;;4949170;29;20031;-78
2023/12/11 11:02:01;;;;;;;0.30;0.30;;;16.60;95.00;;;;;;4949649;29;20058;-78
2023/12/11 11:04:32;;;;;;;1.20;0.63;;;16.70;97.00;;;;;;4952185;28;20038;-79
2023/12/11 11:07:01;;;;;;;1.00;0.77;;;;;;;;;;4949463;29;20019;-78
2023/12/11 11:09:38;;;;;;;1.98;1.65;;;16.70;91.70;;;;;;4937149;29;20063;-78
2023/12/11 11:12:13;;;;;;;6.55;2.63;;;16.50;92.00;;;;;;4949411;29;20508;-79
2023/12/11 11:14:47;;;;;;;14.10;6.00;;;16.40;92.40;;;;;;4948237;28;20038;-78
2023/12/11 11:17:12;;;;;;;4.68;1.80;;;16.30;96.00;;;;;;4952867;29;20054;-78
2023/12/11 11:20:07;;;;;;;3.38;1.00;;;16.20;99.90;;;;;;4952441;29;20489;-78
2023/12/11 11:22:33;;;;;;;1.75;1.10;;;;;;;;;;4951683;28;20609;-78
2023/12/11 11:25:28;;;;;;;3.72;1.65;;;16.30;93.20;;;;;;4951350;29;20024;-79
2023/12/11 11:27:53;;;;;;;1.23;1.10;;;16.40;96.30;;;;;;4951916;29;20259;-79
2023/12/11 11:30:48;;;;;;;0.93;0.80;;;16.30;92.40;;;;;;4952781;29;20267;-78
2023/12/11 11:33:14;;;;;;;0.50;0.50;;;16.60;92.10;;;;;;4943389;29;20464;-79
2023/12/11 11:35:49;;;;;;;0.50;0.50;;;16.40;93.90;;;;;;4935158;29;20047;-78
2023/12/11 11:38:17;;;;;;;1.73;1.00;;;16.40;91.90;;;;;;4952383;29;20058;-78
2023/12/11 11:40:43;;;;;;;1.73;0.47;;;;;;;;;;4952346;29;20025;-79
2023/12/11 11:43:10;;;;;;;0.45;0.35;;;16.40;91.50;;;;;;4950210;29;20123;-79
2023/12/11 11:45:36;;;;;;;2.73;0.60;;;;;;;;;;4951788;29;20090;-78
2023/12/11 11:48:03;;;;;;;0.30;0.30;;;16.30;93.40;;;;;;4946965;29;20042;-78
2023/12/11 11:50:29;;;;;;;0.90;0.70;;;;;;;;;;4950838;29;20061;-78
2023/12/11 11:53:08;;;;;;;2.08;1.05;;;16.40;92.90;;;;;;4952127;29;20035;-78
2023/12/11 11:55:35;;;;;;;0.40;0.30;;;;;;;;;;4949780;29;20465;-78
2023/12/11 11:58:10;;;;;;;1.90;0.30;;;16.70;99.90;;;;;;4951757;29;20023;-78
2023/12/11 12:00:36;;;;;;;0.30;0.30;;;;;;;;;;4951777;29;20023;-78
2023/12/11 12:03:08;;;;;;;0.40;0.40;;;;;;;;;;4948407;29;20049;-78
2023/12/11 12:05:57;;;;;;;0.38;0.38;;;16.90;92.90;;;;;;4954015;28;20011;-78
2023/12/11 12:08:23;;;;;;;0.20;0.20;;;17.00;97.50;;;;;;4950867;29;20047;-78
2023/12/11 12:10:49;;;;;;;0.28;0.28;;;17.20;99.30;;;;;;4950351;29;20023;-78
2023/12/11 12:13:15;;;;;;;0.20;0.20;;;;;;;;;;4951049;29;20031;-78
2023/12/11 12:15:44;;;;;;;0.45;0.45;;;16.80;93.40;;;;;;4952123;29;20031;-78
2023/12/11 12:18:12;;;;;;;0.50;0.50;;;17.20;94.60;;;;;;4950584;29;20410;-78
2023/12/11 12:20:37;;;;;;;;;;;16.60;94.70;;;;;;4949875;29;20038;-78
2023/12/11 12:23:07;;;;;;;0.30;0.30;;;16.30;96.80;;;;;;4950986;28;19921;-77
2023/12/11 12:25:34;;;;;;;0.20;0.20;;;16.20;96.90;;;;;;4951208;28;20033;-78
2023/12/11 12:28:06;;;;;;;0.60;0.47;;;16.10;97.10;;;;;;4940718;29;20029;-80
2023/12/11 12:30:33;;;;;;;0.85;0.30;;;16.00;97.90;;;;;;4948728;29;20744;-77
2023/12/11 12:33:00;;;;;;;0.37;0.37;;;16.00;99.90;;;;;;4945597;28;20027;-77
2023/12/11 12:35:26;;;;;;;0.83;0.47;;;16.00;98.20;;;;;;4951254;29;20451;-77
2023/12/11 12:37:52;;;;;;;1.48;0.32;;;;;;;;;;4951756;29;20102;-77
2023/12/11 12:40:18;;;;;;;0.50;0.35;;;;;;;;;;4951004;29;20086;-78
2023/12/11 12:42:44;;;;;;;0.30;0.30;;;15.70;98.70;;;;;;4951184;29;20488;-77
2023/12/11 12:45:10;;;;;;;0.45;0.40;;;15.70;99.90;;;;;;4951474;29;20030;-78
2023/12/11 12:47:48;;;;;;;1.27;0.80;;;15.80;99.90;;;;;;4951811;29;20046;-80
2023/12/11 12:50:23;;;;;;;1.73;0.75;;;15.70;99.00;;;;;;4951429;29;20055;-79
2023/12/11 12:52:49;;;;;;;3.35;1.65;;;;;;;;;;4950918;29;20031;-76
2023/12/11 12:55:15;;;;;;;0.65;0.40;;;;;;;;;;4948845;29;20364;-75
2023/12/11 12:57:44;;;;;;;0.65;0.35;;;;;;;;;;4949649;29;20055;-78
2023/12/11 13:00:22;;;;;;;0.30;0.30;;;15.90;98.50;;;;;;4951701;29;20030;-78
2023/12/11 13:02:48;;;;;;;0.93;0.70;;;15.90;98.50;;;;;;4950698;29;20039;-85
2023/12/11 13:05:14;;;;;;;0.40;0.30;;;;;;;;;;4953712;28;20038;-79
2023/12/11 13:07:40;;;;;;;1.85;0.57;;;15.60;99.50;;;;;;4951738;29;20062;-78
2023/12/11 13:10:10;;;;;;;1.52;0.50;;;15.90;99.90;;;;;;4950814;29;20456;-77
2023/12/11 13:12:37;;;;;;;0.50;0.50;;;16.00;99.90;;;;;;4949554;29;20539;-79
2023/12/11 13:15:05;;;;;;;0.68;0.55;;;16.10;99.90;;;;;;4950031;29;20038;-79
2023/12/11 13:17:33;;;;;;;0.20;0.20;;;;;;;;;;4950855;29;20488;-79
2023/12/11 13:19:59;;;;;;;1.02;0.70;;;15.60;99.90;;;;;;4950867;29;20047;-79
2023/12/11 13:22:25;;;;;;;2.88;0.65;;;;;;;;;;4950855;29;20471;-79
2023/12/11 13:24:51;;;;;;;3.30;0.60;;;16.00;99.90;;;;;;4951221;28;20015;-79
2023/12/11 13:27:18;;;;;;;3.95;1.83;;;;;;;;;;4950219;29;20042;-79
2023/12/11 13:29:44;;;;;;;3.35;2.65;;;;;;;;;;4950856;29;20031;-79
2023/12/11 13:32:12;;;;;;;0.85;0.73;;;;;;;;;;4950031;29;20031;-79
2023/12/11 13:34:38;;;;;;;2.20;0.80;;;16.20;99.90;;;;;;4950477;29;20399;-79
2023/12/11 13:37:04;;;;;;;2.25;1.40;;;;;;;;;;4949203;28;20040;-78
2023/12/11 13:39:30;;;;;;;2.50;1.17;;;;;;;;;;4950273;29;20031;-77
2023/12/11 13:41:56;;;;;;;3.28;2.15;;;;;;;;;;4949029;29;20039;-78
2023/12/11 13:44:22;;;;;;;5.32;2.60;;;;;;;;;;4939819;29;20046;-79
2023/12/11 13:46:48;;;;;;;10.07;3.25;;;;;;;;;;4950479;29;20090;-78
2023/12/11 13:49:15;;;;;;;11.80;4.38;;;;;;;;;;4950342;29;20027;-78
2023/12/11 13:51:41;;;;;;;1.92;1.13;;;;;;;;;;4949988;29;20029;-78
2023/12/11 13:54:07;;;;;;;1.00;0.90;;;15.60;99.90;;;;;;4944928;29;20090;-78
2023/12/11 13:56:33;;;;;;;0.65;0.50;;;15.70;99.90;;;;;;4949984;29;20067;-78